sensor_id;sensor_type;location;lat;lon;timestamp;P1;durP1;ratioP1;P2;durP2;ratioP2
7231;SDS011;3657;49.630;11.018;2023-03-01T00:02:14;25.73;;;23.00;;
7231;SDS011;3657;49.630;11.018;2023-03-01T00:04:41;25.97;;;23.30;;
7231;SDS011;3657;49.630;11.018;2023-03-01T00:07:09;25.60;;;23.00;;
7231;SDS011;3657;49.630;11.018;2023-03-01T00:09:36;27.10;;;24.37;;
7231;SDS011;3657;49.630;11.018;2023-03-01T00:12:03;24.40;;;22.07;;
7231;SDS011;3657;49.630;11.018;2023-03-01T00:14:30;24.73;;;22.43;;
7231;SDS011;3657;49.630;11.018;2023-03-01T00:16:57;25.37;;;22.83;;
7231;SDS011;3657;49.630;11.018;2023-03-01T00:19:23;25.53;;;22.83;;
7231;SDS011;3657;49.630;11.018;2023-03-01T00:21:50;23.97;;;21.70;;
7231;SDS011;3657;49.630;11.018;2023-03-01T00:24:18;27.57;;;24.67;;
7231;SDS011;3657;49.630;11.018;2023-03-01T00:26:45;26.13;;;23.53;;
7231;SDS011;3657;49.630;11.018;2023-03-01T00:29:11;26.10;;;23.60;;
7231;SDS011;3657;49.630;11.018;2023-03-01T00:31:38;28.43;;;23.50;;
7231;SDS011;3657;49.630;11.018;2023-03-01T00:34:05;27.37;;;24.50;;
7231;SDS011;3657;49.630;11.018;2023-03-01T00:36:34;27.17;;;24.27;;
7231;SDS011;3657;49.630;11.018;2023-03-01T00:39:02;24.27;;;21.87;;
7231;SDS011;3657;49.630;11.018;2023-03-01T00:41:32;24.00;;;21.70;;
7231;SDS011;3657;49.630;11.018;2023-03-01T00:43:59;26.87;;;24.07;;
7231;SDS011;3657;49.630;11.018;2023-03-01T00:46:26;25.90;;;23.40;;
7231;SDS011;3657;49.630;11.018;2023-03-01T00:48:55;25.20;;;22.70;;
7231;SDS011;3657;49.630;11.018;2023-03-01T00:51:22;24.47;;;22.03;;
7231;SDS011;3657;49.630;11.018;2023-03-01T00:53:50;25.50;;;23.00;;
7231;SDS011;3657;49.630;11.018;2023-03-01T00:56:18;25.63;;;23.13;;
7231;SDS011;3657;49.630;11.018;2023-03-01T00:58:46;25.67;;;23.13;;
7231;SDS011;3657;49.630;11.018;2023-03-01T01:01:14;26.53;;;23.87;;
7231;SDS011;3657;49.630;11.018;2023-03-01T01:03:45;25.13;;;22.90;;
7231;SDS011;3657;49.630;11.018;2023-03-01T01:06:13;24.20;;;21.70;;
7231;SDS011;3657;49.630;11.018;2023-03-01T01:08:41;25.63;;;23.03;;
7231;SDS011;3657;49.630;11.018;2023-03-01T01:11:08;23.77;;;21.47;;
7231;SDS011;3657;49.630;11.018;2023-03-01T01:13:35;27.60;;;24.70;;
7231;SDS011;3657;49.630;11.018;2023-03-01T01:16:04;25.53;;;22.87;;
7231;SDS011;3657;49.630;11.018;2023-03-01T01:18:32;25.13;;;22.67;;
7231;SDS011;3657;49.630;11.018;2023-03-01T01:21:02;24.70;;;22.30;;
7231;SDS011;3657;49.630;11.018;2023-03-01T01:23:30;24.37;;;21.87;;
7231;SDS011;3657;49.630;11.018;2023-03-01T01:25:57;24.03;;;21.70;;
7231;SDS011;3657;49.630;11.018;2023-03-01T01:28:23;25.90;;;23.20;;
7231;SDS011;3657;49.630;11.018;2023-03-01T01:30:50;23.93;;;21.60;;
7231;SDS011;3657;49.630;11.018;2023-03-01T01:33:18;25.67;;;22.97;;
7231;SDS011;3657;49.630;11.018;2023-03-01T01:35:45;24.90;;;22.37;;
7231;SDS011;3657;49.630;11.018;2023-03-01T01:38:11;25.90;;;23.30;;
7231;SDS011;3657;49.630;11.018;2023-03-01T01:40:42;24.47;;;22.07;;
7231;SDS011;3657;49.630;11.018;2023-03-01T01:43:11;23.80;;;21.57;;
7231;SDS011;3657;49.630;11.018;2023-03-01T01:45:44;26.73;;;24.03;;
7231;SDS011;3657;49.630;11.018;2023-03-01T01:48:13;27.37;;;24.67;;
7231;SDS011;3657;49.630;11.018;2023-03-01T01:50:44;25.07;;;22.67;;
7231;SDS011;3657;49.630;11.018;2023-03-01T01:53:15;26.57;;;23.97;;
7231;SDS011;3657;49.630;11.018;2023-03-01T01:55:45;24.10;;;21.80;;
7231;SDS011;3657;49.630;11.018;2023-03-01T01:58:15;24.63;;;22.33;;
7231;SDS011;3657;49.630;11.018;2023-03-01T02:00:45;24.27;;;21.90;;
7231;SDS011;3657;49.630;11.018;2023-03-01T02:03:12;23.43;;;21.13;;
7231;SDS011;3657;49.630;11.018;2023-03-01T02:05:45;23.00;;;20.87;;
7231;SDS011;3657;49.630;11.018;2023-03-01T02:08:17;23.73;;;21.23;;
7231;SDS011;3657;49.630;11.018;2023-03-01T02:10:45;23.63;;;21.37;;
7231;SDS011;3657;49.630;11.018;2023-03-01T02:13:14;24.80;;;22.43;;
7231;SDS011;3657;49.630;11.018;2023-03-01T02:15:41;24.00;;;21.70;;
7231;SDS011;3657;49.630;11.018;2023-03-01T02:18:09;23.80;;;21.50;;
7231;SDS011;3657;49.630;11.018;2023-03-01T02:20:39;22.93;;;20.77;;
7231;SDS011;3657;49.630;11.018;2023-03-01T02:23:16;23.30;;;21.10;;
7231;SDS011;3657;49.630;11.018;2023-03-01T02:25:46;23.17;;;20.87;;
7231;SDS011;3657;49.630;11.018;2023-03-01T02:28:26;24.97;;;22.43;;
7231;SDS011;3657;49.630;11.018;2023-03-01T02:30:55;22.57;;;20.37;;
7231;SDS011;3657;49.630;11.018;2023-03-01T02:33:40;24.20;;;21.80;;
7231;SDS011;3657;49.630;11.018;2023-03-01T02:36:10;23.60;;;21.30;;
7231;SDS011;3657;49.630;11.018;2023-03-01T02:38:39;25.83;;;23.20;;
7231;SDS011;3657;49.630;11.018;2023-03-01T02:41:07;24.50;;;22.00;;
7231;SDS011;3657;49.630;11.018;2023-03-01T02:43:36;23.83;;;21.63;;
7231;SDS011;3657;49.630;11.018;2023-03-01T02:46:03;22.23;;;20.20;;
7231;SDS011;3657;49.630;11.018;2023-03-01T02:48:39;23.93;;;21.47;;
7231;SDS011;3657;49.630;11.018;2023-03-01T02:51:10;25.77;;;23.20;;
7231;SDS011;3657;49.630;11.018;2023-03-01T02:53:48;25.20;;;22.70;;
7231;SDS011;3657;49.630;11.018;2023-03-01T02:56:22;24.97;;;22.47;;
7231;SDS011;3657;49.630;11.018;2023-03-01T02:58:50;24.23;;;21.77;;
7231;SDS011;3657;49.630;11.018;2023-03-01T03:01:18;24.87;;;22.47;;
7231;SDS011;3657;49.630;11.018;2023-03-01T03:03:45;27.33;;;23.70;;
7231;SDS011;3657;49.630;11.018;2023-03-01T03:06:12;24.23;;;21.77;;
7231;SDS011;3657;49.630;11.018;2023-03-01T03:08:39;24.97;;;22.37;;
7231;SDS011;3657;49.630;11.018;2023-03-01T03:11:06;26.03;;;23.27;;
7231;SDS011;3657;49.630;11.018;2023-03-01T03:13:32;26.23;;;23.53;;
7231;SDS011;3657;49.630;11.018;2023-03-01T03:16:01;24.53;;;22.07;;
7231;SDS011;3657;49.630;11.018;2023-03-01T03:18:28;25.60;;;23.10;;
7231;SDS011;3657;49.630;11.018;2023-03-01T03:20:55;24.13;;;21.77;;
7231;SDS011;3657;49.630;11.018;2023-03-01T03:23:22;27.47;;;24.50;;
7231;SDS011;3657;49.630;11.018;2023-03-01T03:25:48;26.67;;;23.97;;
7231;SDS011;3657;49.630;11.018;2023-03-01T03:28:16;24.40;;;21.87;;
7231;SDS011;3657;49.630;11.018;2023-03-01T03:30:43;25.40;;;22.70;;
7231;SDS011;3657;49.630;11.018;2023-03-01T03:33:13;23.50;;;21.20;;
7231;SDS011;3657;49.630;11.018;2023-03-01T03:35:40;24.43;;;22.03;;
7231;SDS011;3657;49.630;11.018;2023-03-01T03:38:09;23.70;;;21.37;;
7231;SDS011;3657;49.630;11.018;2023-03-01T03:40:41;24.73;;;22.30;;
7231;SDS011;3657;49.630;11.018;2023-03-01T03:43:10;22.43;;;20.33;;
7231;SDS011;3657;49.630;11.018;2023-03-01T03:45:38;22.70;;;20.50;;
7231;SDS011;3657;49.630;11.018;2023-03-01T03:48:05;24.37;;;21.87;;
7231;SDS011;3657;49.630;11.018;2023-03-01T03:50:34;22.90;;;20.70;;
7231;SDS011;3657;49.630;11.018;2023-03-01T03:53:02;23.30;;;21.10;;
7231;SDS011;3657;49.630;11.018;2023-03-01T03:55:30;23.43;;;20.70;;
7231;SDS011;3657;49.630;11.018;2023-03-01T03:57:58;24.77;;;22.17;;
7231;SDS011;3657;49.630;11.018;2023-03-01T04:00:31;23.03;;;20.67;;
7231;SDS011;3657;49.630;11.018;2023-03-01T04:02:59;25.17;;;22.70;;
7231;SDS011;3657;49.630;11.018;2023-03-01T04:05:26;25.23;;;22.53;;
7231;SDS011;3657;49.630;11.018;2023-03-01T04:07:55;23.83;;;21.47;;
7231;SDS011;3657;49.630;11.018;2023-03-01T04:10:27;23.83;;;21.53;;
7231;SDS011;3657;49.630;11.018;2023-03-01T04:12:54;24.53;;;22.07;;
7231;SDS011;3657;49.630;11.018;2023-03-01T04:15:22;23.87;;;20.77;;
7231;SDS011;3657;49.630;11.018;2023-03-01T04:17:49;23.27;;;21.00;;
7231;SDS011;3657;49.630;11.018;2023-03-01T04:20:18;23.73;;;21.33;;
7231;SDS011;3657;49.630;11.018;2023-03-01T04:22:50;23.23;;;21.13;;
7231;SDS011;3657;49.630;11.018;2023-03-01T04:25:19;24.70;;;22.30;;
7231;SDS011;3657;49.630;11.018;2023-03-01T04:27:46;23.07;;;20.93;;
7231;SDS011;3657;49.630;11.018;2023-03-01T04:30:13;22.80;;;20.63;;
7231;SDS011;3657;49.630;11.018;2023-03-01T04:32:40;23.20;;;20.90;;
7231;SDS011;3657;49.630;11.018;2023-03-01T04:35:07;23.57;;;21.20;;
7231;SDS011;3657;49.630;11.018;2023-03-01T04:37:34;23.77;;;21.43;;
7231;SDS011;3657;49.630;11.018;2023-03-01T04:40:01;24.03;;;21.73;;
7231;SDS011;3657;49.630;11.018;2023-03-01T04:42:38;24.37;;;21.97;;
7231;SDS011;3657;49.630;11.018;2023-03-01T04:45:06;25.10;;;22.60;;
7231;SDS011;3657;49.630;11.018;2023-03-01T04:47:37;25.63;;;22.93;;
7231;SDS011;3657;49.630;11.018;2023-03-01T04:50:05;23.27;;;20.93;;
7231;SDS011;3657;49.630;11.018;2023-03-01T04:52:33;23.10;;;20.87;;
7231;SDS011;3657;49.630;11.018;2023-03-01T04:55:00;24.47;;;21.97;;
7231;SDS011;3657;49.630;11.018;2023-03-01T04:57:26;22.93;;;20.53;;
7231;SDS011;3657;49.630;11.018;2023-03-01T04:59:54;23.67;;;21.33;;
7231;SDS011;3657;49.630;11.018;2023-03-01T05:02:21;23.50;;;21.30;;
7231;SDS011;3657;49.630;11.018;2023-03-01T05:04:48;23.47;;;21.20;;
7231;SDS011;3657;49.630;11.018;2023-03-01T05:07:15;28.87;;;24.90;;
7231;SDS011;3657;49.630;11.018;2023-03-01T05:09:44;24.73;;;22.23;;
7231;SDS011;3657;49.630;11.018;2023-03-01T05:12:11;25.03;;;22.40;;
7231;SDS011;3657;49.630;11.018;2023-03-01T05:14:38;23.57;;;21.20;;
7231;SDS011;3657;49.630;11.018;2023-03-01T05:17:06;22.40;;;20.20;;
7231;SDS011;3657;49.630;11.018;2023-03-01T05:19:33;23.57;;;21.13;;
7231;SDS011;3657;49.630;11.018;2023-03-01T05:22:00;23.83;;;21.43;;
7231;SDS011;3657;49.630;11.018;2023-03-01T05:24:30;22.70;;;20.47;;
7231;SDS011;3657;49.630;11.018;2023-03-01T05:27:00;23.63;;;21.43;;
7231;SDS011;3657;49.630;11.018;2023-03-01T05:29:28;24.03;;;21.47;;
7231;SDS011;3657;49.630;11.018;2023-03-01T05:32:00;24.87;;;22.30;;
7231;SDS011;3657;49.630;11.018;2023-03-01T05:34:30;23.17;;;21.07;;
7231;SDS011;3657;49.630;11.018;2023-03-01T05:36:58;23.73;;;21.37;;
7231;SDS011;3657;49.630;11.018;2023-03-01T05:39:26;27.63;;;23.00;;
7231;SDS011;3657;49.630;11.018;2023-03-01T05:41:54;27.70;;;24.73;;
7231;SDS011;3657;49.630;11.018;2023-03-01T05:44:22;27.80;;;23.90;;
7231;SDS011;3657;49.630;11.018;2023-03-01T05:46:49;25.83;;;22.93;;
7231;SDS011;3657;49.630;11.018;2023-03-01T05:49:16;25.47;;;22.90;;
7231;SDS011;3657;49.630;11.018;2023-03-01T05:51:48;27.10;;;24.17;;
7231;SDS011;3657;49.630;11.018;2023-03-01T05:54:16;26.40;;;23.50;;
7231;SDS011;3657;49.630;11.018;2023-03-01T05:56:43;25.67;;;23.17;;
7231;SDS011;3657;49.630;11.018;2023-03-01T05:59:11;25.53;;;22.90;;
7231;SDS011;3657;49.630;11.018;2023-03-01T06:01:38;25.40;;;22.90;;
7231;SDS011;3657;49.630;11.018;2023-03-01T06:04:06;25.13;;;22.53;;
7231;SDS011;3657;49.630;11.018;2023-03-01T06:06:33;27.50;;;22.83;;
7231;SDS011;3657;49.630;11.018;2023-03-01T06:09:03;25.70;;;23.10;;
7231;SDS011;3657;49.630;11.018;2023-03-01T06:11:33;26.00;;;22.83;;
7231;SDS011;3657;49.630;11.018;2023-03-01T06:14:00;25.37;;;22.87;;
7231;SDS011;3657;49.630;11.018;2023-03-01T06:16:26;24.47;;;21.87;;
7231;SDS011;3657;49.630;11.018;2023-03-01T06:18:53;24.30;;;21.80;;
7231;SDS011;3657;49.630;11.018;2023-03-01T06:21:19;26.37;;;23.80;;
7231;SDS011;3657;49.630;11.018;2023-03-01T06:23:46;22.27;;;20.17;;
7231;SDS011;3657;49.630;11.018;2023-03-01T06:26:14;25.30;;;22.77;;
7231;SDS011;3657;49.630;11.018;2023-03-01T06:28:41;27.10;;;24.27;;
7231;SDS011;3657;49.630;11.018;2023-03-01T06:31:10;24.67;;;22.03;;
7231;SDS011;3657;49.630;11.018;2023-03-01T06:33:37;31.03;;;26.03;;
7231;SDS011;3657;49.630;11.018;2023-03-01T06:36:04;25.77;;;23.07;;
7231;SDS011;3657;49.630;11.018;2023-03-01T06:38:31;25.97;;;23.27;;
7231;SDS011;3657;49.630;11.018;2023-03-01T06:40:58;31.17;;;26.57;;
7231;SDS011;3657;49.630;11.018;2023-03-01T06:43:27;26.13;;;23.40;;
7231;SDS011;3657;49.630;11.018;2023-03-01T06:45:54;28.37;;;24.67;;
7231;SDS011;3657;49.630;11.018;2023-03-01T06:48:20;28.27;;;25.37;;
7231;SDS011;3657;49.630;11.018;2023-03-01T06:50:47;27.60;;;24.77;;
7231;SDS011;3657;49.630;11.018;2023-03-01T06:53:14;27.60;;;24.80;;
7231;SDS011;3657;49.630;11.018;2023-03-01T06:55:40;26.57;;;23.73;;
7231;SDS011;3657;49.630;11.018;2023-03-01T06:58:08;25.17;;;22.60;;
7231;SDS011;3657;49.630;11.018;2023-03-01T07:00:36;26.33;;;23.17;;
7231;SDS011;3657;49.630;11.018;2023-03-01T07:03:05;25.53;;;23.23;;
7231;SDS011;3657;49.630;11.018;2023-03-01T07:05:32;25.93;;;23.20;;
7231;SDS011;3657;49.630;11.018;2023-03-01T07:07:59;28.53;;;24.83;;
7231;SDS011;3657;49.630;11.018;2023-03-01T07:10:26;33.13;;;28.23;;
7231;SDS011;3657;49.630;11.018;2023-03-01T07:12:54;32.83;;;27.90;;
7231;SDS011;3657;49.630;11.018;2023-03-01T07:15:21;27.17;;;24.47;;
7231;SDS011;3657;49.630;11.018;2023-03-01T07:17:49;26.37;;;23.83;;
7231;SDS011;3657;49.630;11.018;2023-03-01T07:20:16;27.47;;;24.77;;
7231;SDS011;3657;49.630;11.018;2023-03-01T07:22:43;29.50;;;26.07;;
7231;SDS011;3657;49.630;11.018;2023-03-01T07:25:10;28.60;;;25.53;;
7231;SDS011;3657;49.630;11.018;2023-03-01T07:27:37;33.83;;;28.33;;
7231;SDS011;3657;49.630;11.018;2023-03-01T07:30:04;28.83;;;25.73;;
7231;SDS011;3657;49.630;11.018;2023-03-01T07:32:31;29.40;;;24.47;;
7231;SDS011;3657;49.630;11.018;2023-03-01T07:34:59;30.40;;;26.73;;
7231;SDS011;3657;49.630;11.018;2023-03-01T07:37:26;27.87;;;24.87;;
7231;SDS011;3657;49.630;11.018;2023-03-01T07:39:53;25.53;;;22.93;;
7231;SDS011;3657;49.630;11.018;2023-03-01T07:42:19;32.37;;;27.10;;
7231;SDS011;3657;49.630;11.018;2023-03-01T07:44:46;32.57;;;28.60;;
7231;SDS011;3657;49.630;11.018;2023-03-01T07:47:13;33.13;;;28.67;;
7231;SDS011;3657;49.630;11.018;2023-03-01T07:49:39;34.33;;;27.60;;
7231;SDS011;3657;49.630;11.018;2023-03-01T07:52:07;32.87;;;29.37;;
7231;SDS011;3657;49.630;11.018;2023-03-01T07:54:36;29.37;;;25.90;;
7231;SDS011;3657;49.630;11.018;2023-03-01T07:57:02;26.47;;;23.77;;
7231;SDS011;3657;49.630;11.018;2023-03-01T07:59:29;30.43;;;27.23;;
7231;SDS011;3657;49.630;11.018;2023-03-01T08:01:56;32.53;;;29.10;;
7231;SDS011;3657;49.630;11.018;2023-03-01T08:04:23;32.07;;;28.57;;
7231;SDS011;3657;49.630;11.018;2023-03-01T08:06:51;28.63;;;25.63;;
7231;SDS011;3657;49.630;11.018;2023-03-01T08:09:20;31.93;;;27.60;;
7231;SDS011;3657;49.630;11.018;2023-03-01T08:11:47;31.20;;;27.87;;
7231;SDS011;3657;49.630;11.018;2023-03-01T08:14:14;30.50;;;27.20;;
7231;SDS011;3657;49.630;11.018;2023-03-01T08:16:41;29.47;;;26.47;;
7231;SDS011;3657;49.630;11.018;2023-03-01T08:19:09;29.60;;;26.07;;
7231;SDS011;3657;49.630;11.018;2023-03-01T08:21:37;30.60;;;27.17;;
7231;SDS011;3657;49.630;11.018;2023-03-01T08:24:04;35.97;;;29.47;;
7231;SDS011;3657;49.630;11.018;2023-03-01T08:26:33;30.37;;;26.73;;
7231;SDS011;3657;49.630;11.018;2023-03-01T08:29:00;31.53;;;27.00;;
7231;SDS011;3657;49.630;11.018;2023-03-01T08:31:27;31.13;;;27.83;;
7231;SDS011;3657;49.630;11.018;2023-03-01T08:33:56;29.57;;;26.33;;
7231;SDS011;3657;49.630;11.018;2023-03-01T08:36:25;31.03;;;27.67;;
7231;SDS011;3657;49.630;11.018;2023-03-01T08:38:53;30.73;;;27.33;;
7231;SDS011;3657;49.630;11.018;2023-03-01T08:41:20;30.00;;;26.73;;
7231;SDS011;3657;49.630;11.018;2023-03-01T08:43:49;30.13;;;26.63;;
7231;SDS011;3657;49.630;11.018;2023-03-01T08:46:15;30.27;;;27.13;;
7231;SDS011;3657;49.630;11.018;2023-03-01T08:48:42;27.77;;;24.90;;
7231;SDS011;3657;49.630;11.018;2023-03-01T08:51:10;30.63;;;27.23;;
7231;SDS011;3657;49.630;11.018;2023-03-01T08:53:38;29.90;;;26.80;;
7231;SDS011;3657;49.630;11.018;2023-03-01T08:56:06;27.87;;;25.07;;
7231;SDS011;3657;49.630;11.018;2023-03-01T08:58:33;28.87;;;25.90;;
7231;SDS011;3657;49.630;11.018;2023-03-01T09:01:04;33.00;;;26.27;;
7231;SDS011;3657;49.630;11.018;2023-03-01T09:03:33;29.60;;;26.53;;
7231;SDS011;3657;49.630;11.018;2023-03-01T09:06:00;27.30;;;24.33;;
7231;SDS011;3657;49.630;11.018;2023-03-01T09:08:27;28.70;;;25.73;;
7231;SDS011;3657;49.630;11.018;2023-03-01T09:10:54;27.97;;;25.13;;
7231;SDS011;3657;49.630;11.018;2023-03-01T09:13:21;29.57;;;26.47;;
7231;SDS011;3657;49.630;11.018;2023-03-01T09:15:49;28.87;;;25.87;;
7231;SDS011;3657;49.630;11.018;2023-03-01T09:18:18;27.00;;;24.47;;
7231;SDS011;3657;49.630;11.018;2023-03-01T09:20:44;28.40;;;25.50;;
7231;SDS011;3657;49.630;11.018;2023-03-01T09:23:11;28.23;;;25.23;;
7231;SDS011;3657;49.630;11.018;2023-03-01T09:25:38;28.20;;;25.47;;
7231;SDS011;3657;49.630;11.018;2023-03-01T09:28:04;28.53;;;25.03;;
7231;SDS011;3657;49.630;11.018;2023-03-01T09:30:31;27.73;;;25.13;;
7231;SDS011;3657;49.630;11.018;2023-03-01T09:32:58;27.57;;;24.90;;
7231;SDS011;3657;49.630;11.018;2023-03-01T09:35:26;27.27;;;24.50;;
7231;SDS011;3657;49.630;11.018;2023-03-01T09:37:53;27.67;;;24.93;;
7231;SDS011;3657;49.630;11.018;2023-03-01T09:40:20;26.30;;;23.60;;
7231;SDS011;3657;49.630;11.018;2023-03-01T09:42:51;25.87;;;23.37;;
7231;SDS011;3657;49.630;11.018;2023-03-01T09:45:27;25.27;;;22.63;;
7231;SDS011;3657;49.630;11.018;2023-03-01T09:47:59;26.17;;;23.40;;
7231;SDS011;3657;49.630;11.018;2023-03-01T09:50:31;26.13;;;23.53;;
7231;SDS011;3657;49.630;11.018;2023-03-01T09:53:01;25.20;;;22.80;;
7231;SDS011;3657;49.630;11.018;2023-03-01T09:55:31;25.67;;;23.20;;
7231;SDS011;3657;49.630;11.018;2023-03-01T09:58:05;26.73;;;24.00;;
7231;SDS011;3657;49.630;11.018;2023-03-01T10:00:46;25.20;;;22.53;;
7231;SDS011;3657;49.630;11.018;2023-03-01T10:03:16;27.37;;;24.53;;
7231;SDS011;3657;49.630;11.018;2023-03-01T10:05:55;24.30;;;22.00;;
7231;SDS011;3657;49.630;11.018;2023-03-01T10:08:27;24.90;;;22.43;;
7231;SDS011;3657;49.630;11.018;2023-03-01T10:11:01;26.07;;;23.43;;
7231;SDS011;3657;49.630;11.018;2023-03-01T10:13:31;24.27;;;21.97;;
7231;SDS011;3657;49.630;11.018;2023-03-01T10:16:05;25.83;;;23.03;;
7231;SDS011;3657;49.630;11.018;2023-03-01T10:18:37;26.17;;;23.47;;
7231;SDS011;3657;49.630;11.018;2023-03-01T10:21:12;24.23;;;22.03;;
7231;SDS011;3657;49.630;11.018;2023-03-01T10:23:42;25.47;;;22.93;;
7231;SDS011;3657;49.630;11.018;2023-03-01T10:26:13;23.67;;;21.40;;
7231;SDS011;3657;49.630;11.018;2023-03-01T10:28:54;24.57;;;22.10;;
7231;SDS011;3657;49.630;11.018;2023-03-01T10:31:31;23.07;;;20.97;;
7231;SDS011;3657;49.630;11.018;2023-03-01T10:34:07;24.93;;;22.30;;
7231;SDS011;3657;49.630;11.018;2023-03-01T10:36:37;24.87;;;22.33;;
7231;SDS011;3657;49.630;11.018;2023-03-01T10:39:06;23.37;;;21.27;;
7231;SDS011;3657;49.630;11.018;2023-03-01T10:41:44;23.60;;;20.47;;
7231;SDS011;3657;49.630;11.018;2023-03-01T10:44:34;23.17;;;21.13;;
7231;SDS011;3657;49.630;11.018;2023-03-01T10:47:13;26.53;;;23.63;;
7231;SDS011;3657;49.630;11.018;2023-03-01T10:49:51;24.40;;;21.90;;
7231;SDS011;3657;49.630;11.018;2023-03-01T10:52:25;23.10;;;21.00;;
7231;SDS011;3657;49.630;11.018;2023-03-01T10:54:56;23.90;;;21.57;;
7231;SDS011;3657;49.630;11.018;2023-03-01T10:57:34;23.90;;;21.60;;
7231;SDS011;3657;49.630;11.018;2023-03-01T11:02:47;23.50;;;21.40;;
7231;SDS011;3657;49.630;11.018;2023-03-01T11:05:22;23.73;;;21.33;;
7231;SDS011;3657;49.630;11.018;2023-03-01T11:07:51;23.87;;;21.50;;
7231;SDS011;3657;49.630;11.018;2023-03-01T11:10:21;24.17;;;21.47;;
7231;SDS011;3657;49.630;11.018;2023-03-01T11:12:50;23.50;;;21.40;;
7231;SDS011;3657;49.630;11.018;2023-03-01T11:15:25;23.57;;;21.17;;
7231;SDS011;3657;49.630;11.018;2023-03-01T11:17:53;23.57;;;21.37;;
7231;SDS011;3657;49.630;11.018;2023-03-01T11:20:24;22.97;;;20.77;;
7231;SDS011;3657;49.630;11.018;2023-03-01T11:22:54;21.97;;;20.03;;
7231;SDS011;3657;49.630;11.018;2023-03-01T11:25:24;24.23;;;21.83;;
7231;SDS011;3657;49.630;11.018;2023-03-01T11:27:53;24.00;;;21.80;;
7231;SDS011;3657;49.630;11.018;2023-03-01T11:30:21;22.03;;;20.03;;
7231;SDS011;3657;49.630;11.018;2023-03-01T11:32:55;28.87;;;22.37;;
7231;SDS011;3657;49.630;11.018;2023-03-01T11:35:29;23.33;;;21.20;;
7231;SDS011;3657;49.630;11.018;2023-03-01T11:38:02;22.63;;;20.47;;
7231;SDS011;3657;49.630;11.018;2023-03-01T11:40:37;22.60;;;20.33;;
7231;SDS011;3657;49.630;11.018;2023-03-01T11:43:10;22.93;;;20.83;;
7231;SDS011;3657;49.630;11.018;2023-03-01T11:45:51;23.33;;;21.10;;
7231;SDS011;3657;49.630;11.018;2023-03-01T11:48:31;22.63;;;20.53;;
7231;SDS011;3657;49.630;11.018;2023-03-01T11:51:17;22.97;;;20.67;;
7231;SDS011;3657;49.630;11.018;2023-03-01T11:53:53;22.77;;;20.67;;
7231;SDS011;3657;49.630;11.018;2023-03-01T11:56:31;23.57;;;21.23;;
7231;SDS011;3657;49.630;11.018;2023-03-01T11:59:15;25.33;;;22.93;;
7231;SDS011;3657;49.630;11.018;2023-03-01T12:02:07;25.20;;;22.73;;
7231;SDS011;3657;49.630;11.018;2023-03-01T12:05:01;23.77;;;21.57;;
7231;SDS011;3657;49.630;11.018;2023-03-01T12:07:45;24.50;;;22.10;;
7231;SDS011;3657;49.630;11.018;2023-03-01T12:10:21;24.20;;;21.80;;
7231;SDS011;3657;49.630;11.018;2023-03-01T12:12:56;24.47;;;22.17;;
7231;SDS011;3657;49.630;11.018;2023-03-01T12:18:44;24.23;;;21.90;;
7231;SDS011;3657;49.630;11.018;2023-03-01T12:21:39;23.43;;;21.20;;
7231;SDS011;3657;49.630;11.018;2023-03-01T12:24:28;24.07;;;21.90;;
7231;SDS011;3657;49.630;11.018;2023-03-01T12:27:19;23.57;;;21.27;;
7231;SDS011;3657;49.630;11.018;2023-03-01T12:29:54;24.40;;;21.97;;
7231;SDS011;3657;49.630;11.018;2023-03-01T12:32:39;23.03;;;20.93;;
7231;SDS011;3657;49.630;11.018;2023-03-01T12:35:34;23.23;;;20.90;;
7231;SDS011;3657;49.630;11.018;2023-03-01T12:38:17;22.40;;;20.47;;
7231;SDS011;3657;49.630;11.018;2023-03-01T12:41:02;25.13;;;22.73;;
7231;SDS011;3657;49.630;11.018;2023-03-01T12:44:08;24.63;;;22.23;;
7231;SDS011;3657;49.630;11.018;2023-03-01T12:46:47;23.83;;;21.63;;
7231;SDS011;3657;49.630;11.018;2023-03-01T12:49:22;23.33;;;21.03;;
7231;SDS011;3657;49.630;11.018;2023-03-01T12:51:54;24.27;;;22.07;;
7231;SDS011;3657;49.630;11.018;2023-03-01T12:54:26;23.20;;;20.97;;
7231;SDS011;3657;49.630;11.018;2023-03-01T12:56:56;24.67;;;22.03;;
7231;SDS011;3657;49.630;11.018;2023-03-01T12:59:31;26.47;;;23.80;;
7231;SDS011;3657;49.630;11.018;2023-03-01T13:02:05;25.17;;;22.70;;
7231;SDS011;3657;49.630;11.018;2023-03-01T13:04:49;26.10;;;23.60;;
7231;SDS011;3657;49.630;11.018;2023-03-01T13:07:25;26.17;;;23.37;;
7231;SDS011;3657;49.630;11.018;2023-03-01T13:10:06;25.67;;;23.07;;
7231;SDS011;3657;49.630;11.018;2023-03-01T13:12:50;25.97;;;23.27;;
7231;SDS011;3657;49.630;11.018;2023-03-01T13:15:26;26.77;;;23.97;;
7231;SDS011;3657;49.630;11.018;2023-03-01T13:17:55;25.73;;;23.30;;
7231;SDS011;3657;49.630;11.018;2023-03-01T13:20:25;26.03;;;23.27;;
7231;SDS011;3657;49.630;11.018;2023-03-01T13:23:03;25.23;;;22.73;;
7231;SDS011;3657;49.630;11.018;2023-03-01T13:25:33;26.17;;;23.43;;
7231;SDS011;3657;49.630;11.018;2023-03-01T13:31:04;27.77;;;25.10;;
7231;SDS011;3657;49.630;11.018;2023-03-01T13:33:44;25.93;;;23.20;;
7231;SDS011;3657;49.630;11.018;2023-03-01T13:36:44;26.57;;;23.93;;
7231;SDS011;3657;49.630;11.018;2023-03-01T13:39:30;25.27;;;22.70;;
7231;SDS011;3657;49.630;11.018;2023-03-01T13:41:58;27.70;;;24.87;;
7231;SDS011;3657;49.630;11.018;2023-03-01T13:44:26;25.30;;;22.73;;
7231;SDS011;3657;49.630;11.018;2023-03-01T13:46:58;27.60;;;24.63;;
7231;SDS011;3657;49.630;11.018;2023-03-01T13:49:41;27.37;;;24.47;;
7231;SDS011;3657;49.630;11.018;2023-03-01T13:52:21;25.63;;;22.97;;
7231;SDS011;3657;49.630;11.018;2023-03-01T13:54:58;26.60;;;23.83;;
7231;SDS011;3657;49.630;11.018;2023-03-01T13:57:28;24.57;;;22.37;;
7231;SDS011;3657;49.630;11.018;2023-03-01T14:00:00;27.27;;;24.57;;
7231;SDS011;3657;49.630;11.018;2023-03-01T14:02:27;25.80;;;23.10;;
7231;SDS011;3657;49.630;11.018;2023-03-01T14:04:57;23.83;;;21.37;;
7231;SDS011;3657;49.630;11.018;2023-03-01T14:07:27;24.27;;;21.97;;
7231;SDS011;3657;49.630;11.018;2023-03-01T14:09:56;27.07;;;24.37;;
7231;SDS011;3657;49.630;11.018;2023-03-01T14:12:32;24.30;;;21.60;;
7231;SDS011;3657;49.630;11.018;2023-03-01T14:15:13;23.33;;;21.23;;
7231;SDS011;3657;49.630;11.018;2023-03-01T14:17:46;22.50;;;20.60;;
7231;SDS011;3657;49.630;11.018;2023-03-01T14:20:22;22.53;;;20.43;;
7231;SDS011;3657;49.630;11.018;2023-03-01T14:22:52;25.30;;;22.80;;
7231;SDS011;3657;49.630;11.018;2023-03-01T14:25:21;22.87;;;20.73;;
7231;SDS011;3657;49.630;11.018;2023-03-01T14:28:00;24.13;;;21.80;;
7231;SDS011;3657;49.630;11.018;2023-03-01T14:30:31;25.47;;;22.87;;
7231;SDS011;3657;49.630;11.018;2023-03-01T14:33:01;24.90;;;22.50;;
7231;SDS011;3657;49.630;11.018;2023-03-01T14:35:31;25.00;;;22.57;;
7231;SDS011;3657;49.630;11.018;2023-03-01T14:38:00;25.43;;;22.83;;
7231;SDS011;3657;49.630;11.018;2023-03-01T14:40:28;22.33;;;20.33;;
7231;SDS011;3657;49.630;11.018;2023-03-01T14:42:57;23.63;;;21.40;;
7231;SDS011;3657;49.630;11.018;2023-03-01T14:45:27;23.77;;;21.67;;
7231;SDS011;3657;49.630;11.018;2023-03-01T14:47:55;24.83;;;22.30;;
7231;SDS011;3657;49.630;11.018;2023-03-01T14:50:27;24.40;;;22.00;;
7231;SDS011;3657;49.630;11.018;2023-03-01T14:52:56;25.33;;;22.93;;
7231;SDS011;3657;49.630;11.018;2023-03-01T14:55:27;23.13;;;21.20;;
7231;SDS011;3657;49.630;11.018;2023-03-01T14:57:57;23.77;;;21.53;;
7231;SDS011;3657;49.630;11.018;2023-03-01T15:00:25;23.67;;;21.27;;
7231;SDS011;3657;49.630;11.018;2023-03-01T15:02:55;23.93;;;21.73;;